Aérodrome :
LOGIN :

S'inscrire | Disclaimer

   EN    FR    IT 

 










Légende :    VFR   VFR Marginal   IFR   IFR Intensif   IFR Très Intensif
Visi : 
Plafond : 
>= 8 km
>= 3000ft
5 à 8 km
1000 à 3000 ft
1500m à 5 km
500 à 1000 ft
800 à 1500m
200 à 500 ft
< 800m
< 200 ft
Symboles :   Orages  Brouillard  Fortes neiges  Fortes précipitations  Vent > 20 kt
SIGMETs :   Divers  Orages  Givrage  Turbulence  Onde Orograph.  Cendres Volcan.






- Altitude de l'aérodrome : 74 ft
- Code IATA : EIN


EHEH - Eindhoven

DERNIER METAR :
  • 232225Z AUTO 05008KT 020V080 9999 OVC250 18/14 Q1013 BLU

METARs EXPIRÉS :
  • 232155Z AUTO 05007KT 010V070 9999 OVC270 18/14 Q1013 BLU
  • 232138Z AUTO 04008KT 9999 OVC290 18/14 Q1013 BLU
  • 232125Z AUTO 04007KT 010V070 9999 OVC320 18/14 Q1013 BLU NOSIG
  • 232055Z AUTO 04008KT 010V070 9999 FEW350 18/14 Q1013 BLU NOSIG
  • 232025Z AUTO 04008KT 9999 NCD 19/14 Q1013 BLU NOSIG
  • 231955Z AUTO 04008KT 9999 FEW330 20/14 Q1013 BLU NOSIG

TAF TAF EHEH
Valide du 23 à 18h jusqu'au 25 à 00h UTC


231701Z 2318/2424 04008KT CAVOK
BECMG 2409/2411 VRB03KT
PROB40
TEMPO 2411/2414 VRB10G20KT 4500 SHRA TSRA SCT040CB BKN070
PROB30
TEMPO 2419/2423 VRB12G25KT 2500 SHRA TSRAGR FEW012 SCT018 SCT030CB
BECMG 2422/2424 22005KT



MET'MAP, la Météo Aéronautique d'un coup d'oeil ! - Copyright ORBIFLY Décembre 2007 - Disclaimer

ORBIFLY MET'MAP TEAM :

Programmation & Développement : Alexandra Zaïnal
Sur une idée originale de : Baudouin d'Aumeries
Assistance à la programmation : Marc-Olivier Méhu
Soutien technique & logistique : Manuel Goepfert

Contact : metmap@orbifly.com




SOURCES & CREDITS :

   NOAA